OZG weather

Zagora Airport
Zagora, Tiznit Province, Morocco

Public forecast

Using degrees Celsius for public forecast. Weather courtesy of forecast.io.

METAR (pilot weather report)

Closest report is Ouarzazate Airport, 65.4 nm (121.2 km) NW. Retrieved 2019/05/25 22:00 UTC (23 minutes ago):

GMMZ 252200Z 29013KT 200V260 CAVOK 27/M01 Q1012 NOSIG

TAF (pilot weather forecast)

Forecast is more than 6 hours old.

Closest forecast is Ouarzazate Airport, 65.4 nm (121.2 km) NW. Retrieved 2019/05/25 12:27 UTC (10 hours ago):

TAF GMMZ 251100Z 2512/2618 14007KT CAVOK TEMPO 2517/2519 28017KT